sensor_id;sensor_type;location;lat;lon;timestamp;P1;durP1;ratioP1;P2;durP2;ratioP2
68432;SDS011;55412;51.350;17.056;2024-02-28T00:02:09;80.53;;;26.92;;
68432;SDS011;55412;51.350;17.056;2024-02-28T00:04:35;74.00;;;25.10;;
68432;SDS011;55412;51.350;17.056;2024-02-28T00:07:01;85.72;;;26.17;;
68432;SDS011;55412;51.350;17.056;2024-02-28T00:09:26;77.43;;;26.40;;
68432;SDS011;55412;51.350;17.056;2024-02-28T00:11:52;86.70;;;27.30;;
68432;SDS011;55412;51.350;17.056;2024-02-28T00:14:18;85.10;;;29.30;;
68432;SDS011;55412;51.350;17.056;2024-02-28T00:16:44;72.70;;;25.30;;
68432;SDS011;55412;51.350;17.056;2024-02-28T00:19:11;84.00;;;26.03;;
68432;SDS011;55412;51.350;17.056;2024-02-28T00:21:38;76.47;;;27.13;;
68432;SDS011;55412;51.350;17.056;2024-02-28T00:24:05;86.28;;;26.35;;
68432;SDS011;55412;51.350;17.056;2024-02-28T00:26:31;84.40;;;27.17;;
68432;SDS011;55412;51.350;17.056;2024-02-28T00:28:57;76.83;;;25.40;;
68432;SDS011;55412;51.350;17.056;2024-02-28T00:31:22;81.88;;;25.73;;
68432;SDS011;55412;51.350;17.056;2024-02-28T00:33:48;77.53;;;25.40;;
68432;SDS011;55412;51.350;17.056;2024-02-28T00:36:14;89.18;;;26.83;;
68432;SDS011;55412;51.350;17.056;2024-02-28T00:38:42;84.85;;;27.63;;
68432;SDS011;55412;51.350;17.056;2024-02-28T00:41:08;88.80;;;27.03;;
68432;SDS011;55412;51.350;17.056;2024-02-28T00:43:34;90.38;;;27.17;;
68432;SDS011;55412;51.350;17.056;2024-02-28T00:46:00;86.97;;;27.50;;
68432;SDS011;55412;51.350;17.056;2024-02-28T00:48:26;81.75;;;27.25;;
68432;SDS011;55412;51.350;17.056;2024-02-28T00:50:54;90.75;;;26.48;;
68432;SDS011;55412;51.350;17.056;2024-02-28T00:53:20;83.30;;;25.83;;
68432;SDS011;55412;51.350;17.056;2024-02-28T00:55:46;92.75;;;27.05;;
68432;SDS011;55412;51.350;17.056;2024-02-28T00:58:11;92.53;;;28.00;;
68432;SDS011;55412;51.350;17.056;2024-02-28T01:00:37;92.85;;;28.27;;
68432;SDS011;55412;51.350;17.056;2024-02-28T01:03:03;92.03;;;29.97;;
68432;SDS011;55412;51.350;17.056;2024-02-28T01:05:29;86.83;;;28.37;;
68432;SDS011;55412;51.350;17.056;2024-02-28T01:07:55;80.93;;;29.48;;
68432;SDS011;55412;51.350;17.056;2024-02-28T01:10:21;88.38;;;28.05;;
68432;SDS011;55412;51.350;17.056;2024-02-28T01:12:47;92.75;;;29.90;;
68432;SDS011;55412;51.350;17.056;2024-02-28T01:15:13;92.97;;;27.50;;
68432;SDS011;55412;51.350;17.056;2024-02-28T01:17:39;92.13;;;28.63;;
68432;SDS011;55412;51.350;17.056;2024-02-28T01:20:05;88.03;;;27.90;;
68432;SDS011;55412;51.350;17.056;2024-02-28T01:22:33;92.88;;;27.50;;
68432;SDS011;55412;51.350;17.056;2024-02-28T01:24:58;83.40;;;27.17;;
68432;SDS011;55412;51.350;17.056;2024-02-28T01:27:24;85.17;;;28.50;;
68432;SDS011;55412;51.350;17.056;2024-02-28T01:29:50;87.80;;;26.60;;
68432;SDS011;55412;51.350;17.056;2024-02-28T01:32:15;92.43;;;28.60;;
68432;SDS011;55412;51.350;17.056;2024-02-28T01:34:41;91.37;;;26.93;;
68432;SDS011;55412;51.350;17.056;2024-02-28T01:37:07;87.70;;;28.48;;
68432;SDS011;55412;51.350;17.056;2024-02-28T01:39:32;93.27;;;29.63;;
68432;SDS011;55412;51.350;17.056;2024-02-28T01:41:58;92.07;;;28.52;;
68432;SDS011;55412;51.350;17.056;2024-02-28T01:44:24;96.80;;;29.67;;
68432;SDS011;55412;51.350;17.056;2024-02-28T01:46:49;88.97;;;27.05;;
68432;SDS011;55412;51.350;17.056;2024-02-28T01:49:16;88.15;;;29.50;;
68432;SDS011;55412;51.350;17.056;2024-02-28T01:51:42;95.57;;;29.00;;
68432;SDS011;55412;51.350;17.056;2024-02-28T01:54:10;103.53;;;29.90;;
68432;SDS011;55412;51.350;17.056;2024-02-28T01:56:36;96.00;;;31.20;;
68432;SDS011;55412;51.350;17.056;2024-02-28T01:59:03;87.85;;;29.60;;
68432;SDS011;55412;51.350;17.056;2024-02-28T02:01:29;104.73;;;30.00;;
68432;SDS011;55412;51.350;17.056;2024-02-28T02:03:55;98.45;;;30.05;;
68432;SDS011;55412;51.350;17.056;2024-02-28T02:06:20;106.60;;;29.98;;
68432;SDS011;55412;51.350;17.056;2024-02-28T02:08:47;100.50;;;29.80;;
68432;SDS011;55412;51.350;17.056;2024-02-28T02:11:17;102.20;;;31.27;;
68432;SDS011;55412;51.350;17.056;2024-02-28T02:13:52;104.82;;;31.08;;
68432;SDS011;55412;51.350;17.056;2024-02-28T02:16:18;107.50;;;30.92;;
68432;SDS011;55412;51.350;17.056;2024-02-28T02:18:47;116.90;;;31.17;;
68432;SDS011;55412;51.350;17.056;2024-02-28T02:21:15;113.20;;;30.10;;
68432;SDS011;55412;51.350;17.056;2024-02-28T02:23:43;104.00;;;30.23;;
68432;SDS011;55412;51.350;17.056;2024-02-28T02:26:09;109.90;;;31.83;;
68432;SDS011;55412;51.350;17.056;2024-02-28T02:28:35;116.83;;;30.87;;
68432;SDS011;55412;51.350;17.056;2024-02-28T02:31:00;105.07;;;30.70;;
68432;SDS011;55412;51.350;17.056;2024-02-28T02:33:26;104.47;;;32.15;;
68432;SDS011;55412;51.350;17.056;2024-02-28T02:35:55;100.70;;;31.23;;
68432;SDS011;55412;51.350;17.056;2024-02-28T02:38:21;108.13;;;29.95;;
68432;SDS011;55412;51.350;17.056;2024-02-28T02:40:50;108.93;;;30.98;;
68432;SDS011;55412;51.350;17.056;2024-02-28T02:43:16;120.50;;;32.42;;
68432;SDS011;55412;51.350;17.056;2024-02-28T02:45:42;115.47;;;32.37;;
68432;SDS011;55412;51.350;17.056;2024-02-28T02:48:09;121.13;;;33.20;;
68432;SDS011;55412;51.350;17.056;2024-02-28T02:50:34;119.80;;;31.77;;
68432;SDS011;55412;51.350;17.056;2024-02-28T02:53:01;110.80;;;33.93;;
68432;SDS011;55412;51.350;17.056;2024-02-28T02:55:27;107.57;;;32.78;;
68432;SDS011;55412;51.350;17.056;2024-02-28T02:57:52;117.65;;;33.08;;
68432;SDS011;55412;51.350;17.056;2024-02-28T03:00:18;116.13;;;33.43;;
68432;SDS011;55412;51.350;17.056;2024-02-28T03:02:44;131.70;;;36.38;;
68432;SDS011;55412;51.350;17.056;2024-02-28T03:05:10;127.70;;;35.73;;
68432;SDS011;55412;51.350;17.056;2024-02-28T03:07:35;116.15;;;32.58;;
68432;SDS011;55412;51.350;17.056;2024-02-28T03:10:01;126.33;;;34.43;;
68432;SDS011;55412;51.350;17.056;2024-02-28T03:12:28;127.68;;;33.60;;
68432;SDS011;55412;51.350;17.056;2024-02-28T03:14:54;116.38;;;33.05;;
68432;SDS011;55412;51.350;17.056;2024-02-28T03:17:19;125.03;;;33.73;;
68432;SDS011;55412;51.350;17.056;2024-02-28T03:19:45;134.63;;;35.80;;
68432;SDS011;55412;51.350;17.056;2024-02-28T03:22:11;124.90;;;32.73;;
68432;SDS011;55412;51.350;17.056;2024-02-28T03:24:37;121.60;;;33.22;;
68432;SDS011;55412;51.350;17.056;2024-02-28T03:27:02;131.03;;;35.00;;
68432;SDS011;55412;51.350;17.056;2024-02-28T03:29:28;122.50;;;33.40;;
68432;SDS011;55412;51.350;17.056;2024-02-28T03:31:54;118.05;;;35.28;;
68432;SDS011;55412;51.350;17.056;2024-02-28T03:34:20;132.25;;;34.85;;
68432;SDS011;55412;51.350;17.056;2024-02-28T03:36:46;131.30;;;34.90;;
68432;SDS011;55412;51.350;17.056;2024-02-28T03:39:12;130.38;;;33.90;;
68432;SDS011;55412;51.350;17.056;2024-02-28T03:41:38;127.43;;;35.80;;
68432;SDS011;55412;51.350;17.056;2024-02-28T03:44:04;126.20;;;34.75;;
68432;SDS011;55412;51.350;17.056;2024-02-28T03:46:30;122.28;;;33.85;;
68432;SDS011;55412;51.350;17.056;2024-02-28T03:48:56;120.07;;;34.77;;
68432;SDS011;55412;51.350;17.056;2024-02-28T03:51:22;133.25;;;33.83;;
68432;SDS011;55412;51.350;17.056;2024-02-28T03:53:48;128.13;;;34.58;;
68432;SDS011;55412;51.350;17.056;2024-02-28T03:56:13;130.87;;;36.47;;
68432;SDS011;55412;51.350;17.056;2024-02-28T03:58:47;143.75;;;35.33;;
68432;SDS011;55412;51.350;17.056;2024-02-28T04:01:13;140.63;;;35.43;;
68432;SDS011;55412;51.350;17.056;2024-02-28T04:03:39;132.30;;;35.80;;
68432;SDS011;55412;51.350;17.056;2024-02-28T04:06:04;119.17;;;32.30;;
68432;SDS011;55412;51.350;17.056;2024-02-28T04:08:30;121.85;;;32.97;;
68432;SDS011;55412;51.350;17.056;2024-02-28T04:10:56;130.67;;;32.53;;
68432;SDS011;55412;51.350;17.056;2024-02-28T04:13:21;135.85;;;33.60;;
68432;SDS011;55412;51.350;17.056;2024-02-28T04:15:47;130.63;;;33.20;;
68432;SDS011;55412;51.350;17.056;2024-02-28T04:18:13;129.13;;;33.70;;
68432;SDS011;55412;51.350;17.056;2024-02-28T04:20:39;117.27;;;30.70;;
68432;SDS011;55412;51.350;17.056;2024-02-28T04:23:04;126.70;;;32.22;;
68432;SDS011;55412;51.350;17.056;2024-02-28T04:25:30;135.23;;;33.53;;
68432;SDS011;55412;51.350;17.056;2024-02-28T04:27:56;129.27;;;33.92;;
68432;SDS011;55412;51.350;17.056;2024-02-28T04:30:22;128.88;;;34.30;;
68432;SDS011;55412;51.350;17.056;2024-02-28T04:32:48;126.60;;;31.23;;
68432;SDS011;55412;51.350;17.056;2024-02-28T04:35:13;124.65;;;31.85;;
68432;SDS011;55412;51.350;17.056;2024-02-28T04:37:43;148.27;;;35.15;;
68432;SDS011;55412;51.350;17.056;2024-02-28T04:40:10;128.40;;;34.13;;
68432;SDS011;55412;51.350;17.056;2024-02-28T04:42:36;129.95;;;34.00;;
68432;SDS011;55412;51.350;17.056;2024-02-28T04:45:03;139.68;;;34.70;;
68432;SDS011;55412;51.350;17.056;2024-02-28T04:47:29;130.85;;;32.85;;
68432;SDS011;55412;51.350;17.056;2024-02-28T04:49:55;132.95;;;32.10;;
68432;SDS011;55412;51.350;17.056;2024-02-28T04:52:21;141.73;;;33.63;;
68432;SDS011;55412;51.350;17.056;2024-02-28T04:54:47;140.40;;;35.20;;
68432;SDS011;55412;51.350;17.056;2024-02-28T04:57:13;119.47;;;34.50;;
68432;SDS011;55412;51.350;17.056;2024-02-28T04:59:41;134.52;;;35.28;;
68432;SDS011;55412;51.350;17.056;2024-02-28T05:02:07;167.53;;;37.00;;
68432;SDS011;55412;51.350;17.056;2024-02-28T05:04:33;141.18;;;36.00;;
68432;SDS011;55412;51.350;17.056;2024-02-28T05:06:58;147.33;;;33.60;;
68432;SDS011;55412;51.350;17.056;2024-02-28T05:09:24;135.15;;;30.98;;
68432;SDS011;55412;51.350;17.056;2024-02-28T05:11:50;137.77;;;33.83;;
68432;SDS011;55412;51.350;17.056;2024-02-28T05:14:15;146.43;;;32.42;;
68432;SDS011;55412;51.350;17.056;2024-02-28T05:16:41;142.07;;;33.53;;
68432;SDS011;55412;51.350;17.056;2024-02-28T05:19:07;152.03;;;32.67;;
68432;SDS011;55412;51.350;17.056;2024-02-28T05:21:39;140.23;;;35.55;;
68432;SDS011;55412;51.350;17.056;2024-02-28T05:24:06;126.50;;;32.60;;
68432;SDS011;55412;51.350;17.056;2024-02-28T05:26:33;111.53;;;29.30;;
68432;SDS011;55412;51.350;17.056;2024-02-28T05:29:02;114.25;;;30.88;;
68432;SDS011;55412;51.350;17.056;2024-02-28T05:31:29;131.63;;;32.90;;
68432;SDS011;55412;51.350;17.056;2024-02-28T05:33:57;133.43;;;33.95;;
68432;SDS011;55412;51.350;17.056;2024-02-28T05:36:24;123.07;;;31.83;;
68432;SDS011;55412;51.350;17.056;2024-02-28T05:38:53;129.93;;;33.78;;
68432;SDS011;55412;51.350;17.056;2024-02-28T05:41:20;122.53;;;32.22;;
68432;SDS011;55412;51.350;17.056;2024-02-28T05:43:46;141.35;;;35.10;;
68432;SDS011;55412;51.350;17.056;2024-02-28T05:46:13;128.05;;;34.05;;
68432;SDS011;55412;51.350;17.056;2024-02-28T05:48:43;134.80;;;31.97;;
68432;SDS011;55412;51.350;17.056;2024-02-28T05:51:10;127.90;;;33.33;;
68432;SDS011;55412;51.350;17.056;2024-02-28T05:53:36;130.75;;;33.33;;
68432;SDS011;55412;51.350;17.056;2024-02-28T05:56:03;120.30;;;32.85;;
68432;SDS011;55412;51.350;17.056;2024-02-28T05:58:29;120.57;;;30.40;;
68432;SDS011;55412;51.350;17.056;2024-02-28T06:00:56;116.03;;;31.43;;
68432;SDS011;55412;51.350;17.056;2024-02-28T06:03:22;111.97;;;31.70;;
68432;SDS011;55412;51.350;17.056;2024-02-28T06:05:48;106.70;;;32.45;;
68432;SDS011;55412;51.350;17.056;2024-02-28T06:08:14;114.00;;;30.57;;
68432;SDS011;55412;51.350;17.056;2024-02-28T06:10:40;111.10;;;31.50;;
68432;SDS011;55412;51.350;17.056;2024-02-28T06:13:07;107.65;;;30.65;;
68432;SDS011;55412;51.350;17.056;2024-02-28T06:15:33;100.63;;;29.38;;
68432;SDS011;55412;51.350;17.056;2024-02-28T06:17:59;105.27;;;31.23;;
68432;SDS011;55412;51.350;17.056;2024-02-28T06:20:25;93.75;;;29.63;;
68432;SDS011;55412;51.350;17.056;2024-02-28T06:22:52;102.40;;;28.13;;
68432;SDS011;55412;51.350;17.056;2024-02-28T06:25:18;96.53;;;28.58;;
68432;SDS011;55412;51.350;17.056;2024-02-28T06:27:45;96.70;;;28.65;;
68432;SDS011;55412;51.350;17.056;2024-02-28T06:30:11;88.90;;;29.80;;
68432;SDS011;55412;51.350;17.056;2024-02-28T06:32:42;91.80;;;28.20;;
68432;SDS011;55412;51.350;17.056;2024-02-28T06:35:08;89.53;;;27.98;;
68432;SDS011;55412;51.350;17.056;2024-02-28T06:37:34;91.28;;;28.27;;
68432;SDS011;55412;51.350;17.056;2024-02-28T06:40:00;76.95;;;27.35;;
68432;SDS011;55412;51.350;17.056;2024-02-28T06:42:29;73.73;;;26.13;;
68432;SDS011;55412;51.350;17.056;2024-02-28T06:44:55;71.35;;;25.15;;
68432;SDS011;55412;51.350;17.056;2024-02-28T06:47:20;66.53;;;23.90;;
68432;SDS011;55412;51.350;17.056;2024-02-28T06:49:46;69.70;;;25.37;;
68432;SDS011;55412;51.350;17.056;2024-02-28T06:52:12;70.88;;;23.40;;
68432;SDS011;55412;51.350;17.056;2024-02-28T06:54:39;68.25;;;23.63;;
68432;SDS011;55412;51.350;17.056;2024-02-28T06:57:04;70.40;;;24.37;;
68432;SDS011;55412;51.350;17.056;2024-02-28T06:59:30;71.50;;;25.57;;
68432;SDS011;55412;51.350;17.056;2024-02-28T07:01:56;74.40;;;24.65;;
68432;SDS011;55412;51.350;17.056;2024-02-28T07:04:22;74.15;;;24.60;;
68432;SDS011;55412;51.350;17.056;2024-02-28T07:06:47;60.33;;;24.30;;
68432;SDS011;55412;51.350;17.056;2024-02-28T07:09:14;68.20;;;24.60;;
68432;SDS011;55412;51.350;17.056;2024-02-28T07:11:40;67.68;;;24.13;;
68432;SDS011;55412;51.350;17.056;2024-02-28T07:14:06;63.53;;;23.20;;
68432;SDS011;55412;51.350;17.056;2024-02-28T07:16:32;63.25;;;22.20;;
68432;SDS011;55412;51.350;17.056;2024-02-28T07:18:59;63.15;;;23.33;;
68432;SDS011;55412;51.350;17.056;2024-02-28T07:21:26;55.92;;;20.17;;
68432;SDS011;55412;51.350;17.056;2024-02-28T07:23:51;60.77;;;22.90;;
68432;SDS011;55412;51.350;17.056;2024-02-28T07:26:17;65.07;;;22.50;;
68432;SDS011;55412;51.350;17.056;2024-02-28T07:28:43;60.58;;;23.10;;
68432;SDS011;55412;51.350;17.056;2024-02-28T07:31:17;58.73;;;20.77;;
68432;SDS011;55412;51.350;17.056;2024-02-28T07:33:43;57.55;;;20.55;;
68432;SDS011;55412;51.350;17.056;2024-02-28T07:36:09;54.38;;;20.17;;
68432;SDS011;55412;51.350;17.056;2024-02-28T07:38:35;49.20;;;17.43;;
68432;SDS011;55412;51.350;17.056;2024-02-28T07:41:01;51.53;;;18.85;;
68432;SDS011;55412;51.350;17.056;2024-02-28T07:43:27;44.45;;;18.20;;
68432;SDS011;55412;51.350;17.056;2024-02-28T07:45:53;49.77;;;18.97;;
68432;SDS011;55412;51.350;17.056;2024-02-28T07:48:19;52.00;;;17.02;;
68432;SDS011;55412;51.350;17.056;2024-02-28T07:50:45;44.10;;;17.90;;
68432;SDS011;55412;51.350;17.056;2024-02-28T07:53:12;44.10;;;16.52;;
68432;SDS011;55412;51.350;17.056;2024-02-28T07:55:38;44.75;;;16.90;;
68432;SDS011;55412;51.350;17.056;2024-02-28T07:58:04;45.50;;;17.27;;
68432;SDS011;55412;51.350;17.056;2024-02-28T08:00:31;40.78;;;16.63;;
68432;SDS011;55412;51.350;17.056;2024-02-28T08:02:59;36.53;;;14.27;;
68432;SDS011;55412;51.350;17.056;2024-02-28T08:05:24;38.75;;;14.82;;
68432;SDS011;55412;51.350;17.056;2024-02-28T08:07:50;41.10;;;14.45;;
68432;SDS011;55412;51.350;17.056;2024-02-28T08:10:16;36.60;;;13.90;;
68432;SDS011;55412;51.350;17.056;2024-02-28T08:12:41;31.75;;;12.20;;
68432;SDS011;55412;51.350;17.056;2024-02-28T08:15:07;31.53;;;11.53;;
68432;SDS011;55412;51.350;17.056;2024-02-28T08:17:33;24.20;;;9.90;;
68432;SDS011;55412;51.350;17.056;2024-02-28T08:19:59;21.85;;;8.07;;
68432;SDS011;55412;51.350;17.056;2024-02-28T08:22:25;21.33;;;8.10;;
68432;SDS011;55412;51.350;17.056;2024-02-28T08:24:51;19.75;;;7.88;;
68432;SDS011;55412;51.350;17.056;2024-02-28T08:27:17;20.05;;;7.13;;
68432;SDS011;55412;51.350;17.056;2024-02-28T08:29:43;20.93;;;7.77;;
68432;SDS011;55412;51.350;17.056;2024-02-28T08:32:10;18.25;;;8.50;;
68432;SDS011;55412;51.350;17.056;2024-02-28T08:34:36;15.65;;;6.93;;
68432;SDS011;55412;51.350;17.056;2024-02-28T08:37:02;20.20;;;8.30;;
68432;SDS011;55412;51.350;17.056;2024-02-28T08:39:28;17.67;;;7.20;;
68432;SDS011;55412;51.350;17.056;2024-02-28T08:41:53;17.80;;;7.47;;
68432;SDS011;55412;51.350;17.056;2024-02-28T08:44:19;19.50;;;7.30;;
68432;SDS011;55412;51.350;17.056;2024-02-28T08:46:46;17.70;;;7.63;;
68432;SDS011;55412;51.350;17.056;2024-02-28T08:49:13;23.10;;;7.57;;
68432;SDS011;55412;51.350;17.056;2024-02-28T08:51:39;22.52;;;8.13;;
68432;SDS011;55412;51.350;17.056;2024-02-28T08:54:05;16.40;;;6.72;;
68432;SDS011;55412;51.350;17.056;2024-02-28T08:56:31;22.92;;;7.70;;
68432;SDS011;55412;51.350;17.056;2024-02-28T08:58:58;20.58;;;8.18;;
68432;SDS011;55412;51.350;17.056;2024-02-28T09:01:24;25.00;;;9.40;;
68432;SDS011;55412;51.350;17.056;2024-02-28T09:03:49;19.10;;;8.00;;
68432;SDS011;55412;51.350;17.056;2024-02-28T09:06:15;17.48;;;7.03;;
68432;SDS011;55412;51.350;17.056;2024-02-28T09:08:41;16.23;;;6.47;;
68432;SDS011;55412;51.350;17.056;2024-02-28T09:11:07;14.57;;;6.50;;
68432;SDS011;55412;51.350;17.056;2024-02-28T09:13:33;15.98;;;6.30;;
68432;SDS011;55412;51.350;17.056;2024-02-28T09:16:01;14.02;;;5.72;;
68432;SDS011;55412;51.350;17.056;2024-02-28T09:18:27;11.33;;;4.57;;
68432;SDS011;55412;51.350;17.056;2024-02-28T09:20:53;13.35;;;5.65;;
68432;SDS011;55412;51.350;17.056;2024-02-28T09:23:19;11.82;;;5.25;;
68432;SDS011;55412;51.350;17.056;2024-02-28T09:25:45;14.47;;;5.23;;
68432;SDS011;55412;51.350;17.056;2024-02-28T09:28:10;12.02;;;4.78;;
68432;SDS011;55412;51.350;17.056;2024-02-28T09:30:38;12.70;;;5.05;;
68432;SDS011;55412;51.350;17.056;2024-02-28T09:33:04;16.27;;;6.15;;
68432;SDS011;55412;51.350;17.056;2024-02-28T09:35:30;13.97;;;5.20;;
68432;SDS011;55412;51.350;17.056;2024-02-28T09:37:56;13.63;;;5.50;;
68432;SDS011;55412;51.350;17.056;2024-02-28T09:40:22;15.20;;;6.00;;
68432;SDS011;55412;51.350;17.056;2024-02-28T09:42:50;16.35;;;6.07;;
68432;SDS011;55412;51.350;17.056;2024-02-28T09:45:19;14.27;;;6.00;;
68432;SDS011;55412;51.350;17.056;2024-02-28T09:47:46;15.73;;;5.50;;
68432;SDS011;55412;51.350;17.056;2024-02-28T09:50:12;15.80;;;6.55;;
68432;SDS011;55412;51.350;17.056;2024-02-28T09:52:38;15.32;;;6.57;;
68432;SDS011;55412;51.350;17.056;2024-02-28T09:55:04;16.87;;;7.07;;
68432;SDS011;55412;51.350;17.056;2024-02-28T09:57:31;14.80;;;6.00;;
68432;SDS011;55412;51.350;17.056;2024-02-28T10:00:00;15.95;;;6.55;;
68432;SDS011;55412;51.350;17.056;2024-02-28T10:02:26;18.25;;;6.40;;
68432;SDS011;55412;51.350;17.056;2024-02-28T10:04:54;17.23;;;6.00;;
68432;SDS011;55412;51.350;17.056;2024-02-28T10:07:22;13.33;;;5.87;;
68432;SDS011;55412;51.350;17.056;2024-02-28T10:09:48;18.50;;;6.53;;
68432;SDS011;55412;51.350;17.056;2024-02-28T10:12:14;17.47;;;6.77;;
68432;SDS011;55412;51.350;17.056;2024-02-28T10:14:39;15.63;;;6.13;;
68432;SDS011;55412;51.350;17.056;2024-02-28T10:17:05;15.00;;;6.73;;
68432;SDS011;55412;51.350;17.056;2024-02-28T10:19:33;13.77;;;6.03;;
68432;SDS011;55412;51.350;17.056;2024-02-28T10:21:59;15.35;;;6.45;;
68432;SDS011;55412;51.350;17.056;2024-02-28T10:24:25;20.02;;;7.63;;
68432;SDS011;55412;51.350;17.056;2024-02-28T10:26:50;16.77;;;6.70;;
68432;SDS011;55412;51.350;17.056;2024-02-28T10:29:22;19.58;;;7.80;;
68432;SDS011;55412;51.350;17.056;2024-02-28T10:31:49;16.30;;;5.60;;
68432;SDS011;55412;51.350;17.056;2024-02-28T10:34:19;17.03;;;6.43;;
68432;SDS011;55412;51.350;17.056;2024-02-28T10:36:46;17.92;;;6.80;;
68432;SDS011;55412;51.350;17.056;2024-02-28T10:39:12;16.08;;;6.47;;
68432;SDS011;55412;51.350;17.056;2024-02-28T10:41:39;15.13;;;5.93;;
68432;SDS011;55412;51.350;17.056;2024-02-28T10:44:05;16.30;;;6.28;;
68432;SDS011;55412;51.350;17.056;2024-02-28T10:46:31;15.37;;;5.07;;
68432;SDS011;55412;51.350;17.056;2024-02-28T10:48:57;12.55;;;5.32;;
68432;SDS011;55412;51.350;17.056;2024-02-28T10:51:24;14.23;;;5.17;;
68432;SDS011;55412;51.350;17.056;2024-02-28T10:53:56;10.68;;;4.57;;
68432;SDS011;55412;51.350;17.056;2024-02-28T10:56:41;12.55;;;4.82;;
68432;SDS011;55412;51.350;17.056;2024-02-28T10:59:08;12.57;;;4.88;;
68432;SDS011;55412;51.350;17.056;2024-02-28T11:01:42;13.10;;;4.57;;
68432;SDS011;55412;51.350;17.056;2024-02-28T11:04:09;13.63;;;4.70;;
68432;SDS011;55412;51.350;17.056;2024-02-28T11:06:46;11.35;;;4.75;;
68432;SDS011;55412;51.350;17.056;2024-02-28T11:09:19;10.25;;;4.25;;
68432;SDS011;55412;51.350;17.056;2024-02-28T11:11:50;10.68;;;3.55;;
68432;SDS011;55412;51.350;17.056;2024-02-28T11:14:17;11.57;;;3.75;;
68432;SDS011;55412;51.350;17.056;2024-02-28T11:16:47;12.80;;;4.00;;
68432;SDS011;55412;51.350;17.056;2024-02-28T11:19:20;10.95;;;3.97;;
68432;SDS011;55412;51.350;17.056;2024-02-28T11:21:55;10.52;;;4.25;;
68432;SDS011;55412;51.350;17.056;2024-02-28T11:24:25;10.65;;;4.40;;
68432;SDS011;55412;51.350;17.056;2024-02-28T11:26:55;10.60;;;4.20;;
68432;SDS011;55412;51.350;17.056;2024-02-28T11:29:22;9.20;;;4.47;;
68432;SDS011;55412;51.350;17.056;2024-02-28T11:31:54;12.38;;;4.68;;
68432;SDS011;55412;51.350;17.056;2024-02-28T11:34:20;12.27;;;4.13;;
68432;SDS011;55412;51.350;17.056;2024-02-28T11:36:47;10.35;;;3.72;;
68432;SDS011;55412;51.350;17.056;2024-02-28T11:39:14;10.67;;;4.87;;
68432;SDS011;55412;51.350;17.056;2024-02-28T11:41:40;12.10;;;4.68;;
68432;SDS011;55412;51.350;17.056;2024-02-28T11:44:06;13.88;;;5.05;;
68432;SDS011;55412;51.350;17.056;2024-02-28T11:46:32;13.83;;;4.67;;
68432;SDS011;55412;51.350;17.056;2024-02-28T11:48:58;12.33;;;4.57;;
68432;SDS011;55412;51.350;17.056;2024-02-28T11:51:25;14.98;;;5.72;;
68432;SDS011;55412;51.350;17.056;2024-02-28T11:53:51;12.63;;;4.83;;
68432;SDS011;55412;51.350;17.056;2024-02-28T11:56:20;14.43;;;5.07;;
68432;SDS011;55412;51.350;17.056;2024-02-28T11:58:49;18.52;;;7.63;;
68432;SDS011;55412;51.350;17.056;2024-02-28T12:01:15;16.35;;;6.55;;
68432;SDS011;55412;51.350;17.056;2024-02-28T12:03:44;33.03;;;14.97;;
68432;SDS011;55412;51.350;17.056;2024-02-28T12:06:11;14.52;;;5.82;;
68432;SDS011;55412;51.350;17.056;2024-02-28T12:08:37;22.35;;;9.77;;
68432;SDS011;55412;51.350;17.056;2024-02-28T12:11:06;44.83;;;18.77;;
68432;SDS011;55412;51.350;17.056;2024-02-28T12:13:33;24.05;;;8.57;;
68432;SDS011;55412;51.350;17.056;2024-02-28T12:16:00;13.57;;;5.70;;
68432;SDS011;55412;51.350;17.056;2024-02-28T12:18:26;14.18;;;4.75;;
68432;SDS011;55412;51.350;17.056;2024-02-28T12:20:55;21.63;;;10.43;;
68432;SDS011;55412;51.350;17.056;2024-02-28T12:23:20;18.58;;;7.43;;
68432;SDS011;55412;51.350;17.056;2024-02-28T12:25:47;22.08;;;10.75;;
68432;SDS011;55412;51.350;17.056;2024-02-28T12:28:13;19.37;;;8.83;;
68432;SDS011;55412;51.350;17.056;2024-02-28T12:30:39;13.38;;;4.78;;
68432;SDS011;55412;51.350;17.056;2024-02-28T12:33:09;15.48;;;4.88;;
68432;SDS011;55412;51.350;17.056;2024-02-28T12:35:39;17.47;;;5.10;;
68432;SDS011;55412;51.350;17.056;2024-02-28T12:38:04;15.27;;;5.80;;
68432;SDS011;55412;51.350;17.056;2024-02-28T12:40:30;16.48;;;5.97;;
68432;SDS011;55412;51.350;17.056;2024-02-28T12:42:56;29.27;;;13.13;;
68432;SDS011;55412;51.350;17.056;2024-02-28T12:45:22;16.90;;;5.95;;
68432;SDS011;55412;51.350;17.056;2024-02-28T12:47:48;22.60;;;7.50;;
68432;SDS011;55412;51.350;17.056;2024-02-28T12:50:14;25.47;;;8.50;;
68432;SDS011;55412;51.350;17.056;2024-02-28T12:52:39;27.50;;;10.20;;
68432;SDS011;55412;51.350;17.056;2024-02-28T12:55:05;25.00;;;8.43;;
68432;SDS011;55412;51.350;17.056;2024-02-28T12:57:31;25.65;;;7.70;;
68432;SDS011;55412;51.350;17.056;2024-02-28T12:59:57;19.90;;;6.60;;
68432;SDS011;55412;51.350;17.056;2024-02-28T13:02:23;23.25;;;7.85;;
68432;SDS011;55412;51.350;17.056;2024-02-28T13:04:49;19.73;;;6.68;;
68432;SDS011;55412;51.350;17.056;2024-02-28T13:07:15;16.33;;;6.03;;
68432;SDS011;55412;51.350;17.056;2024-02-28T13:09:41;18.40;;;6.72;;
68432;SDS011;55412;51.350;17.056;2024-02-28T13:12:07;15.40;;;6.10;;
68432;SDS011;55412;51.350;17.056;2024-02-28T13:14:35;21.70;;;6.50;;
68432;SDS011;55412;51.350;17.056;2024-02-28T13:17:01;15.77;;;6.22;;
68432;SDS011;55412;51.350;17.056;2024-02-28T13:19:29;14.38;;;5.05;;
68432;SDS011;55412;51.350;17.056;2024-02-28T13:21:56;19.03;;;7.20;;
68432;SDS011;55412;51.350;17.056;2024-02-28T13:24:21;29.48;;;10.27;;
68432;SDS011;55412;51.350;17.056;2024-02-28T13:26:47;23.97;;;8.80;;
68432;SDS011;55412;51.350;17.056;2024-02-28T13:29:13;22.38;;;9.07;;
68432;SDS011;55412;51.350;17.056;2024-02-28T13:31:38;25.80;;;9.67;;
68432;SDS011;55412;51.350;17.056;2024-02-28T13:34:04;21.15;;;7.90;;
68432;SDS011;55412;51.350;17.056;2024-02-28T13:36:30;22.98;;;7.40;;
68432;SDS011;55412;51.350;17.056;2024-02-28T13:38:57;19.60;;;6.43;;
68432;SDS011;55412;51.350;17.056;2024-02-28T13:41:23;21.70;;;8.52;;
68432;SDS011;55412;51.350;17.056;2024-02-28T13:43:49;23.48;;;7.70;;
68432;SDS011;55412;51.350;17.056;2024-02-28T13:46:15;17.67;;;7.30;;
68432;SDS011;55412;51.350;17.056;2024-02-28T13:48:40;19.20;;;7.57;;
68432;SDS011;55412;51.350;17.056;2024-02-28T13:51:06;18.40;;;7.03;;
68432;SDS011;55412;51.350;17.056;2024-02-28T13:53:32;17.42;;;6.53;;
68432;SDS011;55412;51.350;17.056;2024-02-28T13:55:57;16.53;;;5.67;;
68432;SDS011;55412;51.350;17.056;2024-02-28T13:58:24;19.80;;;6.47;;
68432;SDS011;55412;51.350;17.056;2024-02-28T14:00:50;19.37;;;7.13;;
68432;SDS011;55412;51.350;17.056;2024-02-28T14:03:16;19.02;;;6.85;;
68432;SDS011;55412;51.350;17.056;2024-02-28T14:05:42;20.23;;;7.30;;
68432;SDS011;55412;51.350;17.056;2024-02-28T14:08:08;19.73;;;7.55;;